sensor_id;sensor_type;location;lat;lon;timestamp;P1;durP1;ratioP1;P2;durP2;ratioP2
34657;SDS011;20865;43.312;27.152;2023-06-14T19:13:04;8.35;;;4.60;;
34657;SDS011;20865;43.312;27.152;2023-06-14T19:15:33;6.37;;;4.05;;
34657;SDS011;20865;43.312;27.152;2023-06-14T19:18:01;7.37;;;4.05;;
34657;SDS011;20865;43.312;27.152;2023-06-14T19:20:31;5.55;;;3.92;;
34657;SDS011;20865;43.312;27.152;2023-06-14T19:22:59;6.85;;;4.17;;
34657;SDS011;20865;43.312;27.152;2023-06-14T19:25:28;5.17;;;3.90;;
34657;SDS011;20865;43.312;27.152;2023-06-14T19:27:58;9.20;;;4.45;;
34657;SDS011;20865;43.312;27.152;2023-06-14T19:30:27;6.95;;;4.33;;
34657;SDS011;20865;43.312;27.152;2023-06-14T19:32:54;8.00;;;3.92;;
34657;SDS011;20865;43.312;27.152;2023-06-14T19:35:22;6.37;;;4.40;;
34657;SDS011;20865;43.312;27.152;2023-06-14T19:37:50;10.13;;;3.95;;
34657;SDS011;20865;43.312;27.152;2023-06-14T19:40:18;9.23;;;4.53;;
34657;SDS011;20865;43.312;27.152;2023-06-14T19:42:46;7.25;;;4.53;;
34657;SDS011;20865;43.312;27.152;2023-06-14T19:45:13;7.72;;;4.47;;
34657;SDS011;20865;43.312;27.152;2023-06-14T19:47:41;7.05;;;4.47;;
34657;SDS011;20865;43.312;27.152;2023-06-14T19:50:10;9.15;;;4.08;;
34657;SDS011;20865;43.312;27.152;2023-06-14T19:52:37;8.48;;;4.37;;
34657;SDS011;20865;43.312;27.152;2023-06-14T19:55:05;6.37;;;4.08;;
34657;SDS011;20865;43.312;27.152;2023-06-14T19:57:33;8.58;;;4.35;;
34657;SDS011;20865;43.312;27.152;2023-06-14T20:00:01;10.15;;;4.87;;
34657;SDS011;20865;43.312;27.152;2023-06-14T20:02:30;10.03;;;4.50;;
34657;SDS011;20865;43.312;27.152;2023-06-14T20:04:57;6.50;;;4.47;;
34657;SDS011;20865;43.312;27.152;2023-06-14T20:07:25;8.53;;;4.75;;
34657;SDS011;20865;43.312;27.152;2023-06-14T20:09:53;7.17;;;4.75;;
34657;SDS011;20865;43.312;27.152;2023-06-14T20:12:23;8.55;;;4.87;;
34657;SDS011;20865;43.312;27.152;2023-06-14T20:14:53;12.85;;;5.55;;
34657;SDS011;20865;43.312;27.152;2023-06-14T20:17:22;8.08;;;4.65;;
34657;SDS011;20865;43.312;27.152;2023-06-14T20:19:49;7.58;;;4.60;;
34657;SDS011;20865;43.312;27.152;2023-06-14T20:22:18;10.78;;;4.85;;
34657;SDS011;20865;43.312;27.152;2023-06-14T20:24:45;8.03;;;4.58;;
34657;SDS011;20865;43.312;27.152;2023-06-14T20:27:13;5.90;;;4.10;;
34657;SDS011;20865;43.312;27.152;2023-06-14T20:29:41;6.62;;;4.20;;
34657;SDS011;20865;43.312;27.152;2023-06-14T20:32:08;8.43;;;4.35;;
34657;SDS011;20865;43.312;27.152;2023-06-14T20:34:36;7.15;;;4.55;;
34657;SDS011;20865;43.312;27.152;2023-06-14T20:37:04;6.67;;;3.98;;
34657;SDS011;20865;43.312;27.152;2023-06-14T20:39:32;16.55;;;4.62;;
34657;SDS011;20865;43.312;27.152;2023-06-14T20:41:59;9.90;;;4.72;;
34657;SDS011;20865;43.312;27.152;2023-06-14T20:44:27;6.72;;;4.10;;
34657;SDS011;20865;43.312;27.152;2023-06-14T20:46:55;8.30;;;4.60;;
34657;SDS011;20865;43.312;27.152;2023-06-14T20:49:23;9.00;;;3.98;;
34657;SDS011;20865;43.312;27.152;2023-06-14T20:51:54;11.68;;;4.58;;
34657;SDS011;20865;43.312;27.152;2023-06-14T20:54:22;8.40;;;4.10;;
34657;SDS011;20865;43.312;27.152;2023-06-14T20:56:49;8.58;;;4.28;;
34657;SDS011;20865;43.312;27.152;2023-06-14T20:59:17;10.93;;;4.70;;
34657;SDS011;20865;43.312;27.152;2023-06-14T21:01:44;7.90;;;5.00;;
34657;SDS011;20865;43.312;27.152;2023-06-14T21:04:12;9.40;;;4.50;;
34657;SDS011;20865;43.312;27.152;2023-06-14T21:06:41;6.72;;;4.25;;
34657;SDS011;20865;43.312;27.152;2023-06-14T21:09:09;8.78;;;4.30;;
34657;SDS011;20865;43.312;27.152;2023-06-14T21:11:37;6.87;;;4.37;;
34657;SDS011;20865;43.312;27.152;2023-06-14T21:14:04;8.08;;;4.85;;
34657;SDS011;20865;43.312;27.152;2023-06-14T21:16:33;8.45;;;5.12;;
34657;SDS011;20865;43.312;27.152;2023-06-14T21:19:00;7.10;;;4.75;;
34657;SDS011;20865;43.312;27.152;2023-06-14T21:21:28;7.67;;;4.47;;
34657;SDS011;20865;43.312;27.152;2023-06-14T21:23:56;9.68;;;4.53;;
34657;SDS011;20865;43.312;27.152;2023-06-14T21:26:23;6.50;;;4.30;;
34657;SDS011;20865;43.312;27.152;2023-06-14T21:28:52;7.10;;;4.12;;
34657;SDS011;20865;43.312;27.152;2023-06-14T21:31:20;7.42;;;4.83;;
34657;SDS011;20865;43.312;27.152;2023-06-14T21:33:47;7.00;;;4.00;;
34657;SDS011;20865;43.312;27.152;2023-06-14T21:36:15;6.15;;;4.30;;
34657;SDS011;20865;43.312;27.152;2023-06-14T21:38:42;6.67;;;3.85;;
34657;SDS011;20865;43.312;27.152;2023-06-14T21:41:10;8.93;;;4.42;;
34657;SDS011;20865;43.312;27.152;2023-06-14T21:43:38;7.40;;;4.33;;
34657;SDS011;20865;43.312;27.152;2023-06-14T21:46:06;6.67;;;4.60;;
34657;SDS011;20865;43.312;27.152;2023-06-14T21:48:34;8.00;;;5.10;;
34657;SDS011;20865;43.312;27.152;2023-06-14T21:51:01;4.83;;;3.72;;
34657;SDS011;20865;43.312;27.152;2023-06-14T21:53:29;7.72;;;4.50;;
34657;SDS011;20865;43.312;27.152;2023-06-14T21:55:59;10.38;;;5.10;;
34657;SDS011;20865;43.312;27.152;2023-06-14T21:58:27;8.93;;;4.75;;
34657;SDS011;20865;43.312;27.152;2023-06-14T22:00:55;8.80;;;4.90;;
34657;SDS011;20865;43.312;27.152;2023-06-14T22:03:22;11.48;;;5.37;;
34657;SDS011;20865;43.312;27.152;2023-06-14T22:05:50;8.43;;;4.40;;
34657;SDS011;20865;43.312;27.152;2023-06-14T22:08:18;8.15;;;4.75;;
34657;SDS011;20865;43.312;27.152;2023-06-14T22:10:46;7.75;;;4.83;;
34657;SDS011;20865;43.312;27.152;2023-06-14T22:13:14;9.53;;;4.80;;
34657;SDS011;20865;43.312;27.152;2023-06-14T22:15:43;8.98;;;4.65;;
34657;SDS011;20865;43.312;27.152;2023-06-14T22:18:12;7.58;;;4.87;;
34657;SDS011;20865;43.312;27.152;2023-06-14T22:20:41;9.48;;;4.30;;
34657;SDS011;20865;43.312;27.152;2023-06-14T22:23:10;8.45;;;5.20;;
34657;SDS011;20865;43.312;27.152;2023-06-14T22:25:39;8.53;;;5.10;;
34657;SDS011;20865;43.312;27.152;2023-06-14T22:28:07;6.80;;;4.45;;
34657;SDS011;20865;43.312;27.152;2023-06-14T22:30:34;8.25;;;5.03;;
34657;SDS011;20865;43.312;27.152;2023-06-14T22:33:02;12.00;;;5.25;;
34657;SDS011;20865;43.312;27.152;2023-06-14T22:35:30;7.08;;;5.12;;
34657;SDS011;20865;43.312;27.152;2023-06-14T22:37:58;9.85;;;5.55;;
34657;SDS011;20865;43.312;27.152;2023-06-14T22:40:27;12.98;;;6.45;;
34657;SDS011;20865;43.312;27.152;2023-06-14T22:42:55;9.88;;;6.28;;
34657;SDS011;20865;43.312;27.152;2023-06-14T22:45:25;8.93;;;6.30;;
34657;SDS011;20865;43.312;27.152;2023-06-14T22:47:54;8.53;;;5.97;;
34657;SDS011;20865;43.312;27.152;2023-06-14T22:50:23;11.43;;;6.92;;
34657;SDS011;20865;43.312;27.152;2023-06-14T22:52:51;10.68;;;6.42;;
34657;SDS011;20865;43.312;27.152;2023-06-14T22:55:19;14.00;;;6.90;;
34657;SDS011;20865;43.312;27.152;2023-06-14T22:57:46;11.00;;;6.40;;
34657;SDS011;20865;43.312;27.152;2023-06-14T23:00:14;13.40;;;6.35;;
34657;SDS011;20865;43.312;27.152;2023-06-14T23:02:43;12.80;;;7.03;;
34657;SDS011;20865;43.312;27.152;2023-06-14T23:05:11;14.00;;;7.45;;
34657;SDS011;20865;43.312;27.152;2023-06-14T23:07:39;13.20;;;7.20;;
34657;SDS011;20865;43.312;27.152;2023-06-14T23:10:08;12.20;;;6.80;;
34657;SDS011;20865;43.312;27.152;2023-06-14T23:12:36;10.95;;;6.75;;
34657;SDS011;20865;43.312;27.152;2023-06-14T23:15:05;11.97;;;6.80;;
34657;SDS011;20865;43.312;27.152;2023-06-14T23:17:35;11.60;;;6.50;;
34657;SDS011;20865;43.312;27.152;2023-06-14T23:20:04;10.80;;;6.40;;
34657;SDS011;20865;43.312;27.152;2023-06-14T23:22:39;12.13;;;7.28;;
34657;SDS011;20865;43.312;27.152;2023-06-14T23:25:03;9.95;;;6.37;;
34657;SDS011;20865;43.312;27.152;2023-06-14T23:27:32;12.63;;;6.25;;
34657;SDS011;20865;43.312;27.152;2023-06-14T23:30:02;13.68;;;6.75;;
34657;SDS011;20865;43.312;27.152;2023-06-14T23:32:31;14.95;;;6.35;;
34657;SDS011;20865;43.312;27.152;2023-06-14T23:35:04;12.70;;;6.37;;
34657;SDS011;20865;43.312;27.152;2023-06-14T23:37:28;10.03;;;6.00;;
34657;SDS011;20865;43.312;27.152;2023-06-14T23:39:58;14.45;;;6.87;;
34657;SDS011;20865;43.312;27.152;2023-06-14T23:42:26;16.82;;;5.75;;
34657;SDS011;20865;43.312;27.152;2023-06-14T23:44:57;11.00;;;6.10;;
34657;SDS011;20865;43.312;27.152;2023-06-14T23:47:28;9.88;;;6.03;;
34657;SDS011;20865;43.312;27.152;2023-06-14T23:49:57;15.30;;;6.90;;
34657;SDS011;20865;43.312;27.152;2023-06-14T23:52:25;11.15;;;6.95;;
34657;SDS011;20865;43.312;27.152;2023-06-14T23:54:54;13.05;;;6.55;;
34657;SDS011;20865;43.312;27.152;2023-06-14T23:57:22;12.07;;;6.78;;
34657;SDS011;20865;43.312;27.152;2023-06-14T23:59:50;15.08;;;6.42;;
